Terminal Aerodrome Forecast
Issued by NWS

Home | Current Version | Previous Version | Text Only | Print | Product List | Glossary On
Versions: 1 2 3 4 5 6 7 8 9 10 11 12 13 14 15 16 17 18 19 20 21 22 23 24 25 26 27 28 29 30 31
000
FTUS43 KDLH 041250 AAA
TAFBRD
TAF AMD
KBRD 041250Z 0413/0512 00000KT 2SM BR SKC
      TEMPO 0413/0414 3SM BR SCT005
     FM041400 15007KT 6SM FU FEW090
     FM041900 17010KT P6SM SCT050
     FM050400 20005KT P6SM FEW050 WS020/23035KT
     FM051000 16007KT P6SM SCT030 BKN080 WS020/21040KT=

USA.gov is the U.S. government's official web portal to all federal, state and local government web resources and services.